GCRRGMAD

Guest
Details From GCRR - Lanzarote
To GMAD - Agadir AL MASSIRA
Flight Number -
Tags generated
Created
Modified
Stats Distance 234 nm / 433 km
Max Altitude 17,800 ft / 5,425 m
Waypoints 5
Social Downloads 0
Likes 0
Share VATSIM

Download

Looking for another format? Having issues loading an existing format? Contact us
Advertisement - Login to hide

Notes

Basic altitude profile: - Ascent Rate: 2500ft/min - Ascent Speed: 250kts - Cruise Altitude: 35000ft - Cruise Speed: 420kts - Descent Rate: 1500ft/min - Descent Speed: 250kts Options: - Use NATs: yes - Use PACOTS: yes - Use low airways: yes - Use high airways: yes

Route

GCRR DEVLA G850 BULOK GMAD

ID Type Via Altitude Latitude Longitude Leg Dist Tot Dist Heading (true) Name
O GCRR APT - 0 ft / 0 m 28.94547˚ -13.60522˚ - 0 nm - Lanzarote
DEVLA FIX - 17,800 ft / 5,425 m 29.24806˚ -12.71833˚ 49 nm 49 nm 68° / 69° -
SOMOM FIX G850 (AWY-LO) 9,300 ft / 2,835 m 30.07250˚ -10.19917˚ 140 nm 190 nm 69° / 70° -
BULOK FIX G850 (AWY-LO) 11,500 ft / 3,505 m 30.18083˚ -9.83833˚ 19 nm 210 nm 71° / 71° -
O GMAD APT - 0 ft / 0 m 30.32262˚ -9.41153˚ 23 nm 234 nm 69° / 69° Agadir AL MASSIRA

Altitude Profile

Advertisement - Login to hide

Weather


0- 5 10 15 20 25 30 35+ Temperature / ° C

Clouds and Precipitation
Forecast for 2018-05-27 12:00 UTC. Updated 5 hours ago

Ground ~20,000 ft ~40,000 ft Winds

GCRR

Details ICAO GCRR (ACE)
Name Lanzarote
Region Canary Islands
Timezone Atlantic/Canary (UTC+1.0)
Stats Elevation 0 ft / 0 m (AMSL)
Location 28.945466° -13.605223°
Runways 1
Magnetic Variation 3.925° W

METAR

GCRR 271630Z 34017KT 310V010 9999 FEW049 22/10 Q1019

Decode

TAF

TAF GCRR 271400Z 2715/2815 36013KT 9999 FEW030 TX24/2814Z TN17/2805Z TEMPO 2715/2720 36015G25KT

Decode

Departure Runways

ID Width Length Bearing (true) Bearing (mag) Surface Threshold Offset Overrun Length
03 148 ft / 45 m 7,893 ft / 2,406 m 26.90° 30.82° Asphalt 197 ft / 60 m 197 ft / 60 m
21 148 ft / 45 m 7,893 ft / 2,406 m 206.91° 210.83° Asphalt 197 ft / 60 m 197 ft / 60 m

GMAD

Details ICAO GMAD
Name Agadir AL MASSIRA
Region Morocco
Timezone Africa/Casablanca (UTC+0.0)
Stats Elevation 250 ft / 76 m (AMSL)
Location 30.322623° -9.411528°
Runways 1
Magnetic Variation 2.432° W

METAR

GMAD 271630Z 26015KT 9999 FEW023 24/11 Q1015 NOSIG

Decode

TAF

TAF GMAD 271100Z 2712/2818 26014KT 8000 SCT020 BECMG 2802/2806 12004KT SCT008 BKN013

Decode

Destination Runways

ID Width Length Bearing (true) Bearing (mag) Surface Threshold Offset Overrun Length
10 148 ft / 45 m 10,509 ft / 3,203 m 91.58° 94.01° Asphalt 0 ft / 0 m 0 ft / 0 m
28 148 ft / 45 m 10,509 ft / 3,203 m 271.60° 274.03° Asphalt 0 ft / 0 m 0 ft / 0 m

Approach Navaids

Runway Type Ident Frequency Range Bearing (true) Bearing (mag) Slope Elevation
28 Localiser ADA 110.30 MHz 18 nm / 33 km 273.07° 275.50° - 250 ft / 76 m (AMSL)
28 Glidescope ADA 110.30 MHz 10 nm / 19 km 271.59° 274.02° 3.00° 250 ft / 76 m (AMSL)

Popular Alternatives